Father Pat — WDG2791 — position and weather

sailwx.info

Track history (hours):
 
Tides and Currents Weather Stations Pressure Air Temp Water Temp Dewpoint Dewpoint Depression Visibility Wind Speed Wind Dir Waves Ship Positions

Father Pat

Owner: Marquette Transportation Company Gulf-Inland, LLC, Jefferson, LA. More information available from US FCC via Universal Licensing System and Coast Guard Vessel Documentation Center.

Last reported at 2016-May-03 15:18 UTC. Time now 2016-Sep-27 19:00 UTC.
Position N 29°48' W 094°00'.
Warning: this ship's position is months out of date.

Type: Towing. MMSI: 367519320.

Date/timePositionNaut miles runAvg speedWind from/ knotsBaromVisibWave heightAir tempDewpointWater temp
2016-May-03 15:18N 29°48' W 094°00'4 5.2
2016-May-03 14:30N 29°51' W 093°57'13 6.7
2016-May-03 12:32N 30°01' W 093°46'2 2.1
2016-May-03 11:32N 30°02' W 093°47'1 1.1
2016-May-03 10:33N 30°02' W 093°49'1 1.1
2016-May-03 09:33N 30°02' W 093°47'1 0.6
2016-May-03 08:32N 30°02' W 093°48'1 1.0
2016-May-03 07:25N 30°03' W 093°49'0 0.0
2016-May-02 23:13N 30°03' W 093°49'0 0.0
2016-May-02 11:06N 30°03' W 093°49'0 0.0
2016-May-01 17:28N 30°03' W 093°49'2 1.7
2016-May-01 16:33N 30°02' W 093°47'2 1.5
2016-May-01 15:29N 30°03' W 093°49'2 1.5
2016-May-01 14:29N 30°02' W 093°47'1 0.8
2016-May-01 13:12N 30°02' W 093°49'1 1.9
2016-May-01 12:29N 30°02' W 093°47'  
Track history (hours):
 
Tides and Currents Weather Stations Pressure Air Temp Water Temp Dewpoint Dewpoint Depression Visibility Wind Speed Wind Dir Waves Ship Positions

Father Pat

Owner: Marquette Transportation Company Gulf-Inland, LLC, Jefferson, LA. More information available from US FCC via Universal Licensing System and Coast Guard Vessel Documentation Center.

Last reported at 2016-May-03 15:18 UTC. Time now 2016-Sep-27 19:00 UTC.
Position N 29°48' W 094°00'.
Warning: this ship's position is months out of date.

Type: Towing. MMSI: 367519320.

Date/timePositionNaut miles runAvg speedWind from/ knotsBaromVisibWave heightAir tempDewpointWater temp
2016-May-03 15:18N 29°48' W 094°00'4 5.2
2016-May-03 14:30N 29°51' W 093°57'13 6.7
2016-May-03 12:32N 30°01' W 093°46'2 2.1
2016-May-03 11:32N 30°02' W 093°47'1 1.1
2016-May-03 10:33N 30°02' W 093°49'1 1.1
2016-May-03 09:33N 30°02' W 093°47'1 0.6
2016-May-03 08:32N 30°02' W 093°48'1 1.0
2016-May-03 07:25N 30°03' W 093°49'0 0.0
2016-May-02 23:13N 30°03' W 093°49'0 0.0
2016-May-02 11:06N 30°03' W 093°49'0 0.0
2016-May-01 17:28N 30°03' W 093°49'2 1.7
2016-May-01 16:33N 30°02' W 093°47'2 1.5
2016-May-01 15:29N 30°03' W 093°49'2 1.5
2016-May-01 14:29N 30°02' W 093°47'1 0.8
2016-May-01 13:12N 30°02' W 093°49'1 1.9
2016-May-01 12:29N 30°02' W 093°47'  

Dump ship's entire track history